Latest Weather Observations for Cape Flattery

IDQ60801

Issued at 6:32 pm EST Tuesday 27 June 2017 (issued every 30 minutes, with the page automatically refreshed every 10 minutes)

About weather observations | Map of weather stations | Latest weather observations for QLD | Other Formats
Station Details ID: 031213 Name: CAPE FLATTERY Lat: -14.97 Lon: 145.31 Height: 18.5 m
Data from the previous 72 hours. | See also: Recent months at Cape Flattery
Date/Time
EST
Temp
°C
App
Temp
°C
Dew
Point
°C
Rel
Hum
%
Delta-T
°C
Wind Press
QNH
hPa
Press
MSL
hPa
Rain since
9am
mm
Dir  Spd
km/h
Gust
km/h
Spd
kts
Gust
kts
27/06:30pm 24.0 21.0 19.9 78 2.6 SE 35 46 19 25 1015.7 1015.6 0.0
27/06:00pm 23.7 21.5 19.6 78 2.6 SE 30 39 16 21 1015.5 1015.4 0.0
27/05:30pm 23.7 21.0 19.6 78 2.6 SE 33 46 18 25 1015.5 1015.4 0.0
27/05:00pm 24.4 21.4 19.0 72 3.4 SSE 33 43 18 23 1015.2 1015.1 0.0
27/04:30pm 24.2 21.3 19.3 74 3.1 SE 33 43 18 23 1015.3 1015.2 0.0
27/04:00pm 24.4 21.8 19.9 76 2.9 SSE 33 43 18 23 1015.4 1015.3 0.0
27/03:30pm 24.4 22.2 20.3 78 2.7 SE 32 41 17 22 1015.4 1015.3 0.0
27/03:00pm 25.7 23.1 19.6 69 3.9 SE 32 46 17 25 1015.4 1015.3 0.0
27/02:30pm 25.9 23.1 19.1 66 4.4 SSE 32 44 17 24 1015.5 1015.4 0.0
27/02:00pm 26.2 24.4 20.3 70 3.9 SSE 30 37 16 20 1015.7 1015.6 0.0
27/01:30pm 26.1 24.0 19.7 68 4.1 SSE 30 39 16 21 1015.9 1015.8 0.0
27/01:00pm 26.2 24.1 19.8 68 4.1 SSE 30 41 16 22 1016.3 1016.2 0.0
27/12:30pm 26.1 23.7 19.2 65 4.4 SE 30 41 16 22 1016.4 1016.3 0.0
27/12:00pm 26.5 23.9 19.9 67 4.3 SSE 33 43 18 23 1016.7 1016.6 0.0
27/11:30am 26.4 24.0 19.0 63 4.7 SE 30 41 16 22 1016.9 1016.8 0.0
27/11:00am 26.2 23.2 19.1 65 4.6 SSE 33 43 18 23 1017.1 1017.0 0.0
27/10:30am 26.1 23.9 19.5 67 4.3 SE 30 41 16 22 1017.3 1017.2 0.0
27/10:00am 25.9 23.7 19.5 68 4.1 SE 30 41 16 22 1017.4 1017.3 0.0
27/09:30am 25.5 23.4 18.9 67 4.2 SE 28 39 15 21 1017.3 1017.2 0.0
27/09:00am 25.2 23.4 19.6 71 3.6 SE 28 37 15 20 1017.3 1017.2 0.6
27/08:30am 24.7 23.4 19.1 71 3.6 SE 24 35 13 19 1017.1 1017.0 0.6
27/08:00am 23.9 23.0 19.0 74 3.1 SE 22 32 12 17 1016.8 1016.7 0.6
27/07:30am 23.5 22.8 19.4 78 2.6 SE 22 30 12 16 1016.5 1016.4 0.6
27/07:00am 22.9 21.7 18.4 76 2.8 SE 22 30 12 16 1016.2 1016.1 0.6
27/06:30am 22.7 21.6 18.7 78 2.5 SE 22 28 12 15 1016.2 1016.1 0.6
27/06:00am 22.7 22.0 18.7 78 2.5 SE 20 26 11 14 1016.0 1015.9 0.6
27/05:30am 23.0 21.5 18.5 76 2.8 SE 24 33 13 18 1015.7 1015.6 0.6
27/05:00am 23.0 21.4 18.3 75 2.9 SE 24 32 13 17 1015.9 1015.8 0.6
27/04:30am 23.1 21.6 18.6 76 2.8 SE 24 33 13 18 1015.8 1015.7 0.6
27/04:00am 23.0 21.5 18.5 76 2.8 SE 24 35 13 19 1015.8 1015.7 0.6
27/03:30am 23.0 21.8 18.3 75 3.0 ESE 22 33 12 18 1015.7 1015.6 0.6
27/03:00am 23.1 21.4 18.2 74 3.1 SE 24 33 13 18 1015.9 1015.8 0.6
27/02:30am 23.2 21.2 18.3 74 3.1 SE 26 35 14 19 1016.0 1015.9 0.6
27/02:00am 23.1 21.4 18.2 74 3.1 SE 24 37 13 20 1016.1 1016.0 0.6
27/01:30am 23.2 21.0 17.9 72 3.3 SE 26 41 14 22 1016.3 1016.2 0.6
27/01:00am 23.4 20.6 18.1 72 3.3 SE 30 43 16 23 1016.6 1016.5 0.6
27/12:30am 23.5 21.5 18.2 72 3.3 ESE 26 39 14 21 1016.8 1016.7 0.6
27/12:00am 23.5 21.7 18.8 75 3.0 ESE 26 39 14 21 1017.0 1016.9 0.6
 
Date/Time
EST
Temp
°C
App
Temp
°C
Dew
Point
°C
Rel
Hum
%
Delta-T
°C
Wind Press
QNH
hPa
Press
MSL
hPa
Rain since
9am
mm
Dir  Spd
km/h
Gust
km/h
Spd
kts
Gust
kts
26/11:30pm 22.8 21.8 18.8 78 2.5 ESE 22 35 12 19 1017.1 1017.0 0.6
26/11:00pm 22.7 21.5 19.3 81 2.2 SE 24 35 13 19 1017.4 1017.3 0.6
26/10:30pm 22.9 21.6 19.1 79 2.4 SE 24 33 13 18 1017.4 1017.3 0.6
26/10:00pm 22.9 22.0 19.9 83 1.9 SE 24 33 13 18 1017.4 1017.3 0.6
26/09:30pm 22.7 22.2 20.0 85 1.7 SE 22 30 12 16 1017.4 1017.3 0.6
26/09:00pm 22.2 21.4 18.4 79 2.4 SE 20 30 11 16 1017.1 1017.0 0.6
26/08:30pm 22.0 20.8 19.2 84 1.8 SE 24 35 13 19 1016.9 1016.8 0.6
26/08:00pm 22.1 21.3 20.0 88 1.3 SE 24 32 13 17 1016.6 1016.5 0.6
26/07:30pm 21.6 20.7 19.9 90 1.1 SSE 24 33 13 18 1016.4 1016.3 0.6
26/07:00pm 22.1 21.9 20.6 91 1.0 SSE 22 30 12 16 1016.2 1016.1 0.0
26/06:30pm 21.5 21.2 19.6 89 1.2 SE 20 33 11 18 1015.9 1015.8 0.0
26/06:00pm 22.8 22.0 20.1 85 1.7 SSE 24 32 13 17 1015.6 1015.5 0.0
26/05:30pm 23.3 21.8 20.2 83 2.0 SSE 28 37 15 20 1015.6 1015.5 0.0
26/05:00pm 24.4 22.7 19.7 75 3.0 SSE 28 35 15 19 1015.5 1015.4 0.0
26/04:30pm 24.7 22.8 19.3 72 3.5 SSE 28 35 15 19 1015.3 1015.2 0.0
26/04:00pm 25.2 24.0 20.0 73 3.4 SSE 26 35 14 19 1015.5 1015.4 0.0
26/03:30pm 25.3 23.4 19.4 70 3.8 SSE 28 35 15 19 1015.4 1015.3 0.0
26/03:00pm 24.3 21.9 19.1 73 3.3 SSE 30 35 16 19 1015.6 1015.5 0.0
26/02:30pm 25.8 24.0 20.4 72 3.5 SSE 30 39 16 21 1015.6 1015.5 0.0
26/02:00pm 27.0 24.6 19.9 65 4.6 SSE 32 43 17 23 1015.6 1015.5 0.0
26/01:30pm 26.3 23.9 19.9 68 4.2 SSE 32 41 17 22 1015.9 1015.8 0.0
26/01:00pm 26.3 23.5 19.4 66 4.4 SSE 33 39 18 21 1016.2 1016.1 0.0
26/12:30pm 26.3 25.2 21.1 73 3.4 SSE 28 39 15 21 1016.5 1016.4 0.0
26/12:00pm 26.5 24.9 20.1 68 4.2 SE 28 33 15 18 1016.8 1016.7 0.0
26/11:30am 25.6 25.0 20.4 73 3.4 SSE 24 30 13 16 1016.9 1016.8 0.0
26/11:00am 24.9 23.5 20.4 76 2.9 S 28 33 15 18 1017.0 1016.9 0.0
26/10:30am 24.8 23.2 20.1 75 3.0 SSE 28 35 15 19 1017.1 1017.0 0.0
26/10:00am 24.6 23.8 20.1 76 2.9 SSE 24 33 13 18 1017.0 1016.9 0.0
26/09:30am 24.4 22.5 20.1 77 2.8 SSE 30 37 16 20 1017.0 1016.9 0.0
26/09:00am 23.6 22.0 20.1 81 2.3 S 28 35 15 19 1016.9 1016.8 1.0
26/08:30am 24.4 23.4 20.5 79 2.5 SSE 26 39 14 21 1016.7 1016.6 1.0
26/08:00am 23.4 22.7 20.3 83 2.0 SSE 24 32 13 17 1016.2 1016.1 1.0
26/07:30am 22.5 22.6 20.4 88 1.4 SSE 20 26 11 14 1016.0 1015.9 1.0
26/07:00am 22.1 22.2 20.4 90 1.1 SSE 20 28 11 15 1015.6 1015.5 1.0
26/06:30am 22.2 21.8 20.1 88 1.4 SSE 22 32 12 17 1015.2 1015.1 1.0
26/06:00am 22.4 21.9 19.9 86 1.6 SE 22 28 12 15 1014.9 1014.8 1.0
26/05:30am 22.3 22.0 20.4 89 1.2 SE 22 28 12 15 1014.8 1014.7 1.0
26/05:00am 21.5 21.0 19.1 86 1.5 SE 20 28 11 15 1014.9 1014.8 1.0
26/04:30am 22.2 21.0 20.1 88 1.4 SE 26 35 14 19 1015.0 1014.9 1.0
26/04:00am 22.0 20.6 19.7 87 1.5 SE 26 32 14 17 1015.1 1015.0 1.0
26/03:30am 21.9 21.0 19.8 88 1.3 SE 24 30 13 16 1015.1 1015.0 1.0
26/03:00am 22.1 21.3 20.0 88 1.3 SE 24 33 13 18 1015.2 1015.1 1.0
26/02:30am 22.2 21.4 20.1 88 1.4 SE 24 33 13 18 1015.4 1015.3 1.0
26/02:00am 22.9 21.0 20.1 84 1.8 SE 30 41 16 22 1015.6 1015.5 0.0
26/01:30am 23.2 20.6 19.4 79 2.4 SE 32 41 17 22 1015.8 1015.7 0.0
26/01:00am 23.2 20.3 18.9 77 2.7 SE 32 39 17 21 1016.1 1016.0 0.0
26/12:30am 23.2 20.7 18.9 77 2.7 SE 30 39 16 21 1016.1 1016.0 0.0
26/12:00am 23.2 20.8 19.2 78 2.5 SE 30 41 16 22 1016.3 1016.2 0.0
 
Date/Time
EST
Temp
°C
App
Temp
°C
Dew
Point
°C
Rel
Hum
%
Delta-T
°C
Wind Press
QNH
hPa
Press
MSL
hPa
Rain since
9am
mm
Dir  Spd
km/h
Gust
km/h
Spd
kts
Gust
kts
25/11:30pm 23.2 20.9 19.4 79 2.4 SSE 30 39 16 21 1016.3 1016.2 0.0
25/11:00pm 23.5 20.9 19.4 78 2.6 SSE 32 44 17 24 1016.2 1016.1 0.0
25/10:30pm 23.3 20.6 19.2 78 2.6 SSE 32 43 17 23 1016.2 1016.1 0.0
25/10:00pm 23.3 20.4 18.8 76 2.8 SE 32 41 17 22 1016.2 1016.1 0.0
25/09:30pm 23.5 20.3 18.6 74 3.1 SE 33 48 18 26 1016.2 1016.1 0.0
25/09:00pm 23.6 20.7 18.9 75 3.0 SE 32 43 17 23 1016.0 1015.9 0.0
25/08:30pm 23.5 20.3 18.6 74 3.1 SE 33 46 18 25 1015.6 1015.5 0.0
25/08:17pm 23.3 20.4 18.8 76 2.8 SSE 32 50 17 27 1015.4 1015.3 0.0
25/08:00pm 23.4 20.5 18.9 76 2.9 SSE 32 43 17 23 1015.2 1015.1 0.0
25/07:30pm 23.3 20.7 18.6 75 3.0 SSE 30 44 16 24 1014.8 1014.7 0.0
25/07:00pm 23.2 20.8 19.2 78 2.5 SSE 30 41 16 22 1014.5 1014.4 0.0
25/06:30pm 23.1 21.1 19.9 82 2.1 SSE 30 39 16 21 1014.2 1014.1 0.0
25/06:00pm 23.2 20.6 19.4 79 2.4 SSE 32 43 17 23 1013.9 1013.8 0.0
25/05:30pm 23.6 20.9 19.7 79 2.5 SSE 33 43 18 23 1013.9 1013.8 0.0
25/05:00pm 23.9 21.8 19.8 78 2.6 SSE 30 43 16 23 1013.8 1013.7 0.0
25/04:30pm 24.4 21.2 19.5 74 3.1 SSE 35 46 19 25 1013.5 1013.4 0.0
25/04:00pm 24.8 22.2 19.8 74 3.2 SSE 33 43 18 23 1013.5 1013.4 0.0
25/03:30pm 24.3 21.3 19.8 76 2.9 SSE 35 46 19 25 1013.6 1013.5 0.0
25/03:00pm 25.5 23.3 20.3 73 3.4 SSE 32 44 17 24 1013.5 1013.4 0.0
25/02:30pm 25.2 22.1 20.5 75 3.1 SSE 37 46 20 25 1013.8 1013.7 0.0
25/02:01pm 23.7 21.4 20.2 81 2.3 SSE 32 50 17 27 1013.7 1013.6 0.0
25/02:00pm 23.7 21.2 20.2 81 2.3 SSE 33 50 18 27 1013.8 1013.7 0.0
25/01:30pm 25.6 22.1 20.4 73 3.4 SSE 39 48 21 26 1014.0 1013.9 0.0
25/01:00pm 25.1 21.8 20.1 74 3.2 SSE 37 48 20 26 1014.3 1014.2 0.0
25/12:30pm 25.1 22.2 20.1 74 3.2 SSE 35 50 19 27 1014.8 1014.7 0.0
25/12:00pm 25.2 22.5 20.5 75 3.1 SSE 35 44 19 24 1015.0 1014.9 0.0
25/11:30am 25.3 22.8 20.8 76 3.0 SSE 35 44 19 24 1015.1 1015.0 0.0
25/11:00am 25.0 22.2 20.3 75 3.1 SSE 35 46 19 25 1015.6 1015.5 0.0
25/10:30am 24.5 22.2 20.6 79 2.5 SSE 33 43 18 23 1015.8 1015.7 0.0
25/10:00am 24.8 22.6 20.7 78 2.7 SSE 33 44 18 24 1015.7 1015.6 0.0
25/09:30am 24.3 21.8 20.2 78 2.7 SSE 33 43 18 23 1015.6 1015.5 0.0
25/09:00am 24.2 22.0 20.3 79 2.5 SSE 32 44 17 24 1015.5 1015.4 0.0
25/08:30am 23.6 21.3 20.1 81 2.3 SSE 32 41 17 22 1015.2 1015.1 0.0
25/08:00am 23.1 21.2 20.2 84 1.9 SSE 30 39 16 21 1015.0 1014.9 0.0
25/07:30am 22.5 20.6 20.2 87 1.5 SSE 30 39 16 21 1014.9 1014.8 0.0
25/07:00am 22.1 20.1 20.0 88 1.3 SSE 30 41 16 22 1014.5 1014.4 0.0
25/06:30am 22.2 20.5 19.9 87 1.5 SSE 28 39 15 21 1014.4 1014.3 0.0
25/06:00am 22.3 20.3 20.0 87 1.5 SSE 30 35 16 19 1014.1 1014.0 0.0
25/05:30am 22.3 20.7 20.0 87 1.5 SSE 28 35 15 19 1014.0 1013.9 0.0
25/05:00am 22.3 20.7 20.0 87 1.5 SSE 28 37 15 20 1013.8 1013.7 0.0
25/04:30am 22.5 21.0 20.2 87 1.5 SSE 28 37 15 20 1013.5 1013.4 0.0
25/04:00am 22.4 20.8 20.1 87 1.5 SSE 28 35 15 19 1013.5 1013.4 0.0
25/03:30am 22.3 20.7 20.0 87 1.5 SSE 28 37 15 20 1013.5 1013.4 0.0
25/03:00am 22.3 21.1 20.0 87 1.5 SSE 26 35 14 19 1013.5 1013.4 0.0
25/02:30am 22.9 21.3 20.1 84 1.8 SSE 28 35 15 19 1013.7 1013.6 0.0
25/02:00am 23.0 21.7 19.0 78 2.5 SE 24 32 13 17 1013.9 1013.8 0.0
25/01:30am 23.1 21.6 18.6 76 2.8 SE 24 30 13 16 1014.3 1014.2 0.0
25/01:00am 23.4 22.7 18.7 75 3.0 SE 20 30 11 16 1014.7 1014.6 0.0
25/12:30am 23.2 22.5 18.7 76 2.8 SE 20 28 11 15 1014.9 1014.8 0.0
25/12:00am 23.3 22.2 18.6 75 3.0 SE 22 33 12 18 1015.0 1014.9 0.0
 
Date/Time
EST
Temp
°C
App
Temp
°C
Dew
Point
°C
Rel
Hum
%
Delta-T
°C
Wind Press
QNH
hPa
Press
MSL
hPa
Rain since
9am
mm
Dir  Spd
km/h
Gust
km/h
Spd
kts
Gust
kts
24/11:30pm 23.2 22.5 18.7 76 2.8 SE 20 28 11 15 1015.1 1015.0 0.0
24/11:00pm 23.3 22.7 18.8 76 2.8 SE 20 32 11 17 1015.1 1015.0 0.0
24/10:30pm 23.4 21.9 18.5 74 3.1 SE 24 32 13 17 1015.3 1015.2 0.0
24/10:00pm 23.4 22.8 18.9 76 2.9 SE 20 28 11 15 1015.1 1015.0 0.0
24/09:30pm 23.3 22.4 19.0 77 2.7 SE 22 30 12 16 1015.1 1015.0 0.0
24/09:00pm 23.3 22.8 19.0 77 2.7 SE 20 30 11 16 1014.9 1014.8 0.0
24/08:30pm 23.3 22.8 19.0 77 2.7 SE 20 28 11 15 1014.9 1014.8 0.0
24/08:00pm 23.2 22.5 18.7 76 2.8 SE 20 30 11 16 1014.8 1014.7 0.0
24/07:30pm 23.3 22.2 18.6 75 3.0 SE 22 32 12 17 1014.6 1014.5 0.0
24/07:00pm 23.3 22.3 18.8 76 2.8 SE 22 32 12 17 1014.4 1014.3 0.0

Other Formats:

Comma delimited format used in spreadsheet applications
http://www.bom.gov.au/fwo/IDQ60801/IDQ60801.94188.axf

JavaScript Object Notation format (JSON) in row-major order
http://www.bom.gov.au/fwo/IDQ60801/IDQ60801.94188.json